Time;durP1;ratioP1;P1;durP2;ratioP2;P2;SDS_P1;SDS_P2;PMS_P1;PMS_P2;Temp;Humidity;BMP_temperature;BMP_pressure;BME280_temperature;BME280_humidity;BME280_pressure;Samples;Min_cycle;Max_cycle;Signal;HPM_P1;HPM_P2
2021/07/23 00:00:56;;;;;;;11.27;6.97;;;17.00;99.80;;;;;;6087033;23;20783;-87
2021/07/23 00:03:24;;;;;;;7.70;5.50;;;17.00;99.80;;;;;;6119156;23;20521;-86
2021/07/23 00:05:52;;;;;;;10.67;7.30;;;17.00;99.80;;;;;;6112211;23;20439;-84
2021/07/23 00:08:20;;;;;;;11.70;7.20;;;16.90;99.80;;;;;;6115130;23;21025;-84
2021/07/23 00:10:48;;;;;;;8.80;6.40;;;16.90;99.80;;;;;;6092662;23;20424;-84
2021/07/23 00:13:17;;;;;;;10.77;6.80;;;16.90;99.80;;;;;;6098129;23;20443;-85
2021/07/23 00:15:45;;;;;;;9.80;6.33;;;16.90;99.80;;;;;;6096548;23;20439;-85
2021/07/23 00:18:14;;;;;;;8.93;5.80;;;16.90;99.80;;;;;;6090449;23;20951;-84
2021/07/23 00:20:42;;;;;;;11.83;6.77;;;16.80;99.80;;;;;;6097914;23;20443;-85
2021/07/23 00:23:09;;;;;;;7.60;5.50;;;16.80;99.80;;;;;;6075875;23;20446;-84
2021/07/23 00:25:38;;;;;;;9.30;6.70;;;16.80;99.80;;;;;;6086005;23;20816;-84
2021/07/23 00:28:06;;;;;;;10.50;6.47;;;16.70;99.80;;;;;;6078690;23;20520;-84
2021/07/23 00:30:35;;;;;;;9.47;6.60;;;16.70;99.80;;;;;;6071077;23;20461;-85
2021/07/23 00:33:03;;;;;;;12.33;8.00;;;16.60;99.80;;;;;;6103221;23;20835;-84
2021/07/23 00:35:31;;;;;;;10.20;6.43;;;16.50;99.80;;;;;;6117009;23;20442;-85
2021/07/23 00:37:59;;;;;;;10.60;6.67;;;16.50;99.80;;;;;;6110625;23;20439;-84
2021/07/23 00:40:30;;;;;;;14.33;7.97;;;;;;;;;;6098190;23;20443;-84
2021/07/23 00:42:58;;;;;;;15.23;7.40;;;16.40;99.80;;;;;;6091996;23;20935;-84
2021/07/23 00:45:26;;;;;;;10.67;6.90;;;16.30;99.80;;;;;;6087344;23;20446;-84
2021/07/23 00:47:55;;;;;;;15.70;6.50;;;16.30;99.80;;;;;;6105786;23;20447;-84
2021/07/23 00:50:24;;;;;;;13.00;7.83;;;16.30;99.80;;;;;;6094440;23;20439;-85
2021/07/23 00:52:51;;;;;;;8.97;6.60;;;16.30;99.80;;;;;;6095990;23;20783;-85
2021/07/23 00:55:19;;;;;;;12.10;7.23;;;16.20;99.80;;;;;;6102283;23;20446;-84
2021/07/23 00:57:48;;;;;;;13.20;8.60;;;16.20;99.80;;;;;;6088813;23;20443;-84
2021/07/23 01:00:16;;;;;;;12.73;6.70;;;16.20;99.80;;;;;;6085591;23;20464;-84
2021/07/23 01:02:45;;;;;;;10.30;6.70;;;16.20;99.80;;;;;;6087029;23;20451;-84
2021/07/23 01:05:14;;;;;;;12.03;7.00;;;16.10;99.80;;;;;;6107200;23;20505;-85
2021/07/23 01:07:42;;;;;;;10.40;6.80;;;16.10;99.80;;;;;;6114828;23;20438;-85
2021/07/23 01:10:11;;;;;;;7.50;6.33;;;16.10;99.80;;;;;;6115186;23;20446;-84
2021/07/23 01:12:39;;;;;;;12.07;6.77;;;16.10;99.80;;;;;;6098674;23;20443;-84
2021/07/23 01:15:07;;;;;;;10.27;6.63;;;16.10;99.80;;;;;;6105795;23;21037;-85
2021/07/23 01:17:35;;;;;;;10.33;6.90;;;16.00;99.80;;;;;;6107376;23;20439;-84
2021/07/23 01:20:06;;;;;;;9.47;7.20;;;16.00;99.80;;;;;;6112997;23;20964;-84
2021/07/23 01:22:41;;;;;;;13.87;7.07;;;16.00;99.80;;;;;;6110033;23;20442;-85
2021/07/23 01:25:11;;;;;;;14.73;7.23;;;16.00;99.80;;;;;;6104083;23;20460;-85
2021/07/23 01:27:44;;;;;;;12.00;7.00;;;15.90;99.80;;;;;;6095698;23;20447;-85
2021/07/23 01:30:14;;;;;;;10.10;6.70;;;15.90;99.80;;;;;;6107220;23;20444;-85
2021/07/23 01:32:42;;;;;;;13.70;6.70;;;15.90;99.80;;;;;;6109469;23;20449;-84
2021/07/23 01:35:11;;;;;;;9.33;7.00;;;15.90;99.80;;;;;;6114893;23;20446;-84
2021/07/23 01:37:41;;;;;;;11.03;6.80;;;15.90;99.80;;;;;;6113804;23;20449;-84
2021/07/23 01:40:12;;;;;;;9.60;6.43;;;15.80;99.80;;;;;;6115711;23;20438;-84
2021/07/23 01:42:46;;;;;;;11.47;7.30;;;15.80;99.80;;;;;;6115792;23;20516;-84
2021/07/23 01:45:16;;;;;;;10.80;7.10;;;15.80;99.80;;;;;;6104333;23;20457;-84
2021/07/23 01:47:44;;;;;;;10.30;6.50;;;15.80;99.80;;;;;;6104315;23;20435;-85
2021/07/23 01:50:12;;;;;;;14.20;7.83;;;15.80;99.80;;;;;;6117760;23;21244;-85
2021/07/23 01:52:40;;;;;;;12.03;7.43;;;15.80;99.80;;;;;;6109760;23;20432;-84
2021/07/23 01:55:10;;;;;;;17.20;8.27;;;15.70;99.80;;;;;;6105818;23;20443;-85
2021/07/23 01:57:38;;;;;;;9.27;6.63;;;15.70;99.80;;;;;;6098704;23;20452;-85
2021/07/23 02:00:07;;;;;;;11.03;6.60;;;15.70;99.80;;;;;;6088305;23;20450;-85
2021/07/23 02:02:35;;;;;;;11.80;7.40;;;15.70;99.80;;;;;;6135050;23;21207;-85
2021/07/23 02:05:04;;;;;;;12.40;7.60;;;15.70;99.80;;;;;;6123430;23;20852;-85
2021/07/23 02:07:32;;;;;;;11.60;6.83;;;15.70;99.80;;;;;;6123833;23;20403;-85
2021/07/23 02:10:01;;;;;;;12.73;8.20;;;15.70;99.80;;;;;;6123213;23;20409;-85
2021/07/23 02:12:31;;;;;;;10.43;7.30;;;15.60;99.80;;;;;;6123425;23;20424;-84
2021/07/23 02:14:58;;;;;;;9.77;7.17;;;15.60;99.80;;;;;;6123639;23;20422;-85
2021/07/23 02:17:26;;;;;;;17.50;8.10;;;15.50;99.80;;;;;;6123350;23;20467;-84
2021/07/23 02:19:55;;;;;;;12.63;7.23;;;15.50;99.80;;;;;;6122891;23;20413;-84
2021/07/23 02:22:22;;;;;;;12.27;8.20;;;15.60;99.80;;;;;;6123081;23;20448;-84
2021/07/23 02:24:50;;;;;;;10.80;7.30;;;15.60;99.80;;;;;;6122793;23;20944;-84
2021/07/23 02:27:18;;;;;;;9.67;7.10;;;15.60;99.80;;;;;;6123390;23;20401;-84
2021/07/23 02:29:48;;;;;;;12.00;7.60;;;15.50;99.80;;;;;;6122845;23;20409;-84
2021/07/23 02:32:16;;;;;;;10.10;7.80;;;15.60;99.80;;;;;;6122930;23;20405;-85
2021/07/23 02:34:44;;;;;;;12.60;8.00;;;15.50;99.80;;;;;;6073112;23;20462;-84
2021/07/23 02:37:15;;;;;;;17.83;8.73;;;15.50;99.80;;;;;;6102351;23;21094;-84
2021/07/23 02:39:43;;;;;;;11.73;7.73;;;15.50;99.80;;;;;;6091546;23;20827;-84
2021/07/23 02:42:11;;;;;;;13.80;9.17;;;15.50;99.80;;;;;;6094042;23;20442;-84
2021/07/23 02:44:39;;;;;;;12.20;8.47;;;15.40;99.80;;;;;;6103053;23;20446;-84
2021/07/23 02:47:08;;;;;;;14.60;8.50;;;15.50;99.80;;;;;;6095290;23;20444;-84
2021/07/23 02:49:36;;;;;;;14.20;8.63;;;15.50;99.80;;;;;;6103343;23;20523;-84
2021/07/23 02:52:05;;;;;;;11.10;7.97;;;15.50;99.80;;;;;;6096235;23;20442;-84
2021/07/23 02:54:32;;;;;;;13.83;8.23;;;15.50;99.80;;;;;;6096223;23;20987;-84
2021/07/23 02:57:01;;;;;;;13.57;8.60;;;;;;;;;;6103160;23;20510;-84
2021/07/23 02:59:29;;;;;;;11.83;8.67;;;15.50;99.80;;;;;;6093667;23;20438;-84
2021/07/23 03:01:59;;;;;;;12.50;8.60;;;15.50;99.80;;;;;;6059045;23;20440;-84
2021/07/23 03:04:31;;;;;;;10.20;7.57;;;15.60;99.80;;;;;;6115103;23;20441;-84
2021/07/23 03:06:59;;;;;;;11.90;8.20;;;15.60;99.80;;;;;;6110262;23;20467;-85
2021/07/23 03:09:27;;;;;;;15.07;8.70;;;;;;;;;;6110182;23;20581;-84
2021/07/23 03:11:56;;;;;;;12.60;7.70;;;;;;;;;;6108774;23;21034;-84
2021/07/23 03:14:26;;;;;;;11.57;9.07;;;;;;;;;;6103924;23;20522;-84
2021/07/23 03:16:59;;;;;;;13.83;8.33;;;;;;;;;;6108450;23;20442;-85
2021/07/23 03:19:27;;;;;;;11.30;7.90;;;;;;;;;;6099557;23;20449;-84
2021/07/23 03:21:56;;;;;;;14.40;9.10;;;15.80;99.80;;;;;;6110217;23;20441;-85
2021/07/23 03:24:27;;;;;;;12.90;8.17;;;16.00;99.80;;;;;;6104084;23;20442;-84
2021/07/23 03:26:55;;;;;;;11.03;7.83;;;;;;;;;;6104884;23;20967;-84
2021/07/23 03:29:23;;;;;;;15.23;8.77;;;16.10;99.80;;;;;;6109840;23;20468;-84
2021/07/23 03:31:51;;;;;;;15.33;8.50;;;;;;;;;;6106454;23;20452;-84
2021/07/23 03:34:19;;;;;;;15.83;8.50;;;16.10;99.80;;;;;;6112993;23;20466;-84
2021/07/23 03:36:47;;;;;;;13.97;8.50;;;;;;;;;;6113584;23;20445;-85
2021/07/23 03:39:17;;;;;;;11.23;8.00;;;;;;;;;;6107220;23;20446;-84
2021/07/23 03:41:46;;;;;;;14.37;8.67;;;16.00;99.80;;;;;;6093359;23;20456;-85
2021/07/23 03:44:16;;;;;;;14.63;8.60;;;15.90;99.80;;;;;;6108561;23;20965;-84
2021/07/23 03:46:44;;;;;;;11.70;7.60;;;15.90;99.80;;;;;;6110358;23;20441;-84
2021/07/23 03:49:12;;;;;;;10.87;7.73;;;15.90;99.80;;;;;;6111397;23;20446;-85
2021/07/23 03:51:40;;;;;;;10.60;7.00;;;15.80;99.80;;;;;;6109203;23;20451;-84
2021/07/23 03:54:08;;;;;;;13.57;7.63;;;15.80;99.80;;;;;;6099349;23;20449;-85
2021/07/23 03:56:37;;;;;;;12.37;7.80;;;15.80;99.80;;;;;;6108534;23;20775;-85
2021/07/23 03:59:05;;;;;;;15.23;8.90;;;15.90;99.80;;;;;;6091348;23;20450;-84
2021/07/23 04:01:33;;;;;;;10.87;7.73;;;15.90;99.80;;;;;;6076519;23;21028;-84
2021/07/23 04:04:01;;;;;;;11.60;7.27;;;15.90;99.80;;;;;;6115578;23;20983;-84
2021/07/23 04:06:29;;;;;;;11.53;7.47;;;16.00;99.80;;;;;;6115868;23;20407;-84
2021/07/23 04:08:57;;;;;;;11.37;7.50;;;16.10;99.80;;;;;;6111744;23;20441;-82
2021/07/23 04:11:32;;;;;;;9.73;6.60;;;16.10;99.80;;;;;;6107715;23;20441;-83
2021/07/23 04:14:15;;;;;;;11.00;7.53;;;16.10;99.80;;;;;;6097035;23;20443;-85
2021/07/23 04:16:44;;;;;;;13.90;7.67;;;16.10;99.80;;;;;;6105436;23;20438;-85
2021/07/23 04:19:12;;;;;;;11.27;7.60;;;16.10;99.80;;;;;;6098092;23;21227;-85
2021/07/23 04:21:40;;;;;;;11.40;8.33;;;15.90;99.80;;;;;;6101919;23;20440;-85
2021/07/23 04:24:08;;;;;;;16.33;8.10;;;15.80;99.80;;;;;;6103714;23;20446;-85
2021/07/23 04:26:36;;;;;;;12.33;7.83;;;15.70;99.80;;;;;;6110683;23;20449;-85
2021/07/23 04:29:04;;;;;;;12.40;7.73;;;15.70;99.80;;;;;;6096197;23;20452;-85
2021/07/23 04:31:33;;;;;;;11.03;7.70;;;15.60;99.80;;;;;;6107164;23;21155;-85
2021/07/23 04:34:04;;;;;;;15.83;8.23;;;15.60;99.80;;;;;;6112363;23;20448;-85
2021/07/23 04:36:35;;;;;;;9.50;7.60;;;15.60;99.80;;;;;;6111520;23;20430;-85
2021/07/23 04:39:03;;;;;;;16.20;8.20;;;15.50;99.80;;;;;;6114630;23;20451;-85
2021/07/23 04:41:32;;;;;;;17.90;7.30;;;15.50;99.80;;;;;;6106037;23;20834;-85
2021/07/23 04:44:00;;;;;;;12.23;8.00;;;15.50;99.80;;;;;;6104274;23;20442;-85
2021/07/23 04:46:28;;;;;;;12.23;7.17;;;;;;;;;;6109415;23;21017;-85
2021/07/23 04:49:00;;;;;;;13.63;7.93;;;15.50;99.80;;;;;;6108552;23;20749;-85
2021/07/23 04:51:30;;;;;;;13.47;8.73;;;;;;;;;;6112762;23;20441;-86
2021/07/23 04:53:58;;;;;;;11.20;7.20;;;15.60;99.80;;;;;;6097929;23;20528;-85
2021/07/23 04:56:26;;;;;;;14.43;7.63;;;15.60;99.80;;;;;;6104679;23;20437;-86
2021/07/23 04:58:57;;;;;;;10.97;8.03;;;15.70;99.80;;;;;;6102097;23;20449;-86
2021/07/23 05:01:25;;;;;;;16.77;7.90;;;15.60;99.80;;;;;;6079097;23;20521;-85
2021/07/23 05:03:53;;;;;;;10.77;7.43;;;15.70;99.80;;;;;;6123238;23;20438;-85
2021/07/23 05:06:22;;;;;;;10.80;7.70;;;15.70;99.80;;;;;;6112341;23;20450;-85
2021/07/23 05:08:50;;;;;;;14.00;8.23;;;15.80;99.80;;;;;;6113285;23;20978;-85
2021/07/23 05:11:18;;;;;;;11.30;7.73;;;15.80;99.80;;;;;;6113513;23;20437;-84
2021/07/23 05:13:47;;;;;;;11.50;7.43;;;15.90;99.80;;;;;;6111503;23;20971;-85
2021/07/23 05:16:15;;;;;;;13.40;8.00;;;15.90;99.80;;;;;;6096379;23;20452;-85
2021/07/23 05:18:43;;;;;;;13.00;8.63;;;16.00;99.80;;;;;;6113167;23;20934;-85
2021/07/23 05:21:12;;;;;;;18.77;8.57;;;16.00;99.80;;;;;;6114415;23;20449;-85
2021/07/23 05:23:42;;;;;;;13.20;8.03;;;16.10;99.80;;;;;;6102261;23;20488;-85
2021/07/23 05:26:10;;;;;;;15.20;7.47;;;16.10;99.80;;;;;;6107180;23;20444;-86
2021/07/23 05:28:38;;;;;;;13.23;8.10;;;16.20;99.80;;;;;;6098701;23;20774;-86
2021/07/23 05:31:07;;;;;;;12.70;8.20;;;16.30;99.80;;;;;;6109902;23;21026;-84
2021/07/23 05:33:35;;;;;;;13.07;7.40;;;16.40;99.80;;;;;;6107369;23;20450;-84
2021/07/23 05:36:04;;;;;;;9.63;7.10;;;16.40;99.80;;;;;;6105048;23;20442;-84
2021/07/23 05:38:32;;;;;;;12.30;7.97;;;16.60;99.80;;;;;;6106695;23;20436;-84
2021/07/23 05:41:08;;;;;;;11.77;8.57;;;16.60;99.80;;;;;;6090308;23;20453;-84
2021/07/23 05:43:36;;;;;;;12.40;8.30;;;16.70;99.80;;;;;;6082315;23;20477;-85
2021/07/23 05:46:08;;;;;;;12.87;7.87;;;;;;;;;;6103028;23;20455;-87
2021/07/23 05:48:39;;;;;;;10.83;8.07;;;17.10;99.80;;;;;;6108771;23;20758;-86
2021/07/23 05:51:08;;;;;;;10.10;7.93;;;17.10;99.80;;;;;;6114154;23;20962;-86
2021/07/23 05:53:37;;;;;;;13.33;8.83;;;17.20;99.80;;;;;;6113064;23;20432;-87
2021/07/23 05:56:07;;;;;;;13.00;8.77;;;17.30;99.80;;;;;;6103786;23;20450;-87
2021/07/23 05:58:35;;;;;;;17.53;8.90;;;17.40;99.80;;;;;;6100310;23;20575;-87
2021/07/23 06:01:06;;;;;;;12.43;8.77;;;17.50;99.80;;;;;;6087187;23;20764;-87
2021/07/23 06:03:36;;;;;;;11.63;7.93;;;17.60;99.80;;;;;;6088504;23;20533;-87
2021/07/23 06:06:05;;;;;;;13.30;8.40;;;17.60;99.80;;;;;;6101529;23;21063;-87
2021/07/23 06:08:51;;;;;;;14.10;9.13;;;17.70;99.80;;;;;;6092176;23;20552;-87
2021/07/23 06:11:20;;;;;;;15.23;8.53;;;17.80;99.80;;;;;;6107008;23;20437;-87
2021/07/23 06:13:48;;;;;;;12.70;8.97;;;17.90;99.80;;;;;;6098844;23;20438;-87
2021/07/23 06:16:16;;;;;;;12.63;8.60;;;17.90;99.80;;;;;;6107728;23;20533;-87
2021/07/23 06:18:45;;;;;;;12.53;8.67;;;18.00;99.80;;;;;;6113375;23;20467;-87
2021/07/23 06:21:14;;;;;;;15.27;9.27;;;18.10;99.80;;;;;;6108889;23;20743;-87
2021/07/23 06:23:42;;;;;;;11.60;9.00;;;18.20;99.80;;;;;;6115390;23;20439;-87
2021/07/23 06:26:10;;;;;;;14.30;8.97;;;18.20;99.80;;;;;;6114198;23;20514;-86
2021/07/23 06:28:39;;;;;;;15.57;9.20;;;18.30;99.80;;;;;;6088783;23;20434;-86
2021/07/23 06:31:07;;;;;;;13.23;9.20;;;18.40;99.80;;;;;;6105281;23;20445;-87
2021/07/23 06:33:35;;;;;;;11.50;8.20;;;18.40;99.80;;;;;;6113199;23;20442;-87
2021/07/23 06:36:04;;;;;;;14.30;8.73;;;18.50;99.80;;;;;;6111197;23;20439;-88
2021/07/23 06:38:32;;;;;;;12.67;8.87;;;18.60;99.80;;;;;;6111048;23;20442;-87
2021/07/23 06:41:00;;;;;;;11.33;8.17;;;18.60;99.80;;;;;;6101094;23;20438;-87
2021/07/23 06:43:28;;;;;;;16.73;9.13;;;18.70;99.80;;;;;;6098064;23;20443;-87
2021/07/23 06:45:58;;;;;;;13.73;8.80;;;18.70;99.80;;;;;;6106729;23;20442;-87
2021/07/23 06:48:26;;;;;;;14.60;9.87;;;18.70;99.80;;;;;;6111427;23;20462;-88
2021/07/23 06:50:54;;;;;;;14.40;9.43;;;18.70;99.80;;;;;;6116266;23;20439;-88
2021/07/23 06:53:22;;;;;;;12.37;8.43;;;18.70;99.80;;;;;;6115845;23;20439;-87
2021/07/23 06:55:50;;;;;;;15.70;9.10;;;18.80;99.80;;;;;;6115345;23;20445;-87
2021/07/23 06:58:18;;;;;;;13.27;8.53;;;18.90;99.80;;;;;;6111674;23;20969;-87
2021/07/23 07:00:47;;;;;;;14.27;8.60;;;18.90;99.80;;;;;;6085541;23;20453;-87
2021/07/23 07:03:17;;;;;;;13.80;9.50;;;19.00;99.80;;;;;;6119717;23;20443;-87
2021/07/23 07:05:50;;;;;;;14.17;9.23;;;19.00;99.80;;;;;;6116321;23;20443;-87
2021/07/23 07:08:18;;;;;;;17.40;8.93;;;19.10;99.80;;;;;;6105097;23;20466;-87
2021/07/23 07:10:46;;;;;;;11.17;8.20;;;19.20;99.80;;;;;;6088647;23;20840;-86
2021/07/23 07:13:14;;;;;;;12.63;8.90;;;19.30;99.80;;;;;;6101194;23;20446;-86
2021/07/23 07:15:42;;;;;;;11.17;8.10;;;19.40;99.80;;;;;;6087374;23;20514;-86
2021/07/23 07:18:10;;;;;;;23.70;9.20;;;19.50;99.80;;;;;;6087944;23;20459;-87
2021/07/23 07:20:39;;;;;;;14.40;9.80;;;19.60;99.80;;;;;;6089949;23;20443;-86
2021/07/23 07:23:07;;;;;;;14.30;8.13;;;19.70;99.80;;;;;;6088038;23;20446;-85
2021/07/23 07:25:35;;;;;;;15.20;8.50;;;19.80;99.80;;;;;;6096913;23;20441;-87
2021/07/23 07:28:04;;;;;;;14.80;7.33;;;19.90;99.80;;;;;;6103064;23;20963;-87
2021/07/23 07:30:31;;;;;;;12.53;7.70;;;20.00;99.80;;;;;;6099819;23;20434;-88
2021/07/23 07:32:59;;;;;;;11.10;8.40;;;20.20;99.80;;;;;;6106816;23;20513;-87
2021/07/23 07:35:28;;;;;;;10.93;7.73;;;;;;;;;;6111918;23;20957;-88
2021/07/23 07:37:57;;;;;;;12.37;8.37;;;20.50;99.80;;;;;;6113828;23;20511;-87
2021/07/23 07:40:25;;;;;;;11.27;7.83;;;20.60;99.80;;;;;;6087846;23;20442;-86
2021/07/23 07:42:53;;;;;;;10.50;7.43;;;20.70;99.80;;;;;;6088261;23;20455;-87
2021/07/23 07:45:21;;;;;;;13.93;9.23;;;20.80;99.80;;;;;;6078226;23;20982;-86
2021/07/23 07:47:50;;;;;;;14.33;8.20;;;20.90;99.80;;;;;;6100927;23;20444;-88
2021/07/23 07:50:18;;;;;;;14.70;8.50;;;20.90;99.80;;;;;;6085314;23;20439;-86
2021/07/23 07:52:46;;;;;;;11.63;8.10;;;21.00;99.80;;;;;;6072363;23;21153;-87
2021/07/23 07:55:16;;;;;;;12.53;7.87;;;21.10;99.80;;;;;;6086780;23;20447;-89
2021/07/23 07:57:45;;;;;;;11.47;7.97;;;;;;;;;;6102224;23;20435;-89
2021/07/23 08:00:14;;;;;;;11.43;8.23;;;21.20;99.80;;;;;;6087623;23;20922;-87
2021/07/23 08:02:43;;;;;;;11.63;7.80;;;21.40;99.80;;;;;;6114275;23;20446;-88
2021/07/23 08:05:14;;;;;;;9.27;7.20;;;21.40;99.80;;;;;;6110492;23;20539;-87
2021/07/23 08:07:42;;;;;;;10.80;7.20;;;21.70;99.80;;;;;;6114339;23;20512;-88
2021/07/23 08:10:14;;;;;;;9.40;6.80;;;21.70;99.80;;;;;;6114913;23;20439;-89
2021/07/23 08:12:43;;;;;;;13.60;8.00;;;21.90;99.80;;;;;;6070628;23;20930;-88
2021/07/23 08:15:12;;;;;;;7.63;6.60;;;22.00;99.80;;;;;;6085931;23;20557;-88
2021/07/23 08:17:40;;;;;;;12.40;8.23;;;22.10;99.70;;;;;;6086472;23;20803;-91
2021/07/23 08:20:10;;;;;;;8.10;6.50;;;22.20;99.10;;;;;;6109760;23;20487;-90
2021/07/23 08:22:38;;;;;;;9.50;6.77;;;22.30;99.00;;;;;;6085651;23;20439;-89
2021/07/23 08:25:07;;;;;;;12.90;7.10;;;22.50;98.10;;;;;;6071130;23;21005;-90
2021/07/23 08:27:35;;;;;;;8.33;6.83;;;22.60;96.30;;;;;;6085856;23;20871;-89
2021/07/23 08:30:05;;;;;;;9.77;6.83;;;22.70;96.20;;;;;;6085311;23;20449;-88
2021/07/23 08:32:36;;;;;;;10.97;6.90;;;;;;;;;;6083550;23;20438;-88
2021/07/23 08:35:05;;;;;;;7.50;6.27;;;22.80;97.00;;;;;;6113305;23;20842;-86
2021/07/23 08:37:34;;;;;;;12.53;7.33;;;23.00;95.90;;;;;;6113622;23;20442;-86
2021/07/23 08:40:05;;;;;;;8.67;6.53;;;23.10;96.40;;;;;;6110293;23;20451;-86
2021/07/23 08:42:34;;;;;;;10.37;7.47;;;23.20;95.00;;;;;;6102456;23;21128;-86
2021/07/23 08:45:06;;;;;;;8.27;6.30;;;23.30;94.80;;;;;;6076698;23;20482;-86
2021/07/23 08:47:35;;;;;;;8.20;7.10;;;23.30;94.70;;;;;;6099748;23;20513;-86
2021/07/23 08:50:05;;;;;;;7.30;6.20;;;23.30;96.40;;;;;;6113960;23;20454;-86
2021/07/23 08:52:41;;;;;;;8.73;5.80;;;23.50;95.40;;;;;;6097949;23;20446;-86
2021/07/23 08:55:11;;;;;;;9.00;6.80;;;23.60;95.20;;;;;;6086977;23;20442;-86
2021/07/23 08:57:39;;;;;;;10.53;7.07;;;23.80;93.90;;;;;;6070495;23;20962;-86
2021/07/23 09:00:11;;;;;;;8.93;6.77;;;23.80;92.90;;;;;;6085834;23;20439;-86
2021/07/23 09:02:54;;;;;;;13.73;7.03;;;23.90;92.40;;;;;;6041149;23;20436;-86
2021/07/23 09:05:25;;;;;;;12.00;7.60;;;24.10;92.30;;;;;;6087080;23;20449;-87
2021/07/23 09:07:54;;;;;;;8.07;6.57;;;24.10;89.60;;;;;;6049317;23;20936;-86
2021/07/23 09:10:24;;;;;;;7.03;6.10;;;24.10;91.60;;;;;;6082420;23;20465;-87
2021/07/23 09:12:53;;;;;;;8.37;6.20;;;24.30;88.50;;;;;;6085194;23;20824;-87
2021/07/23 09:15:25;;;;;;;7.90;6.50;;;24.40;88.40;;;;;;6072813;23;20517;-86
2021/07/23 09:17:54;;;;;;;10.73;7.63;;;24.40;87.80;;;;;;6086319;23;20434;-87
2021/07/23 09:20:25;;;;;;;6.97;5.63;;;24.50;87.50;;;;;;6114431;23;20473;-86
2021/07/23 09:22:54;;;;;;;7.87;6.17;;;24.50;86.90;;;;;;6107900;23;20446;-86
2021/07/23 09:25:41;;;;;;;7.23;5.83;;;24.60;86.30;;;;;;6086413;23;20446;-87
2021/07/23 09:28:30;;;;;;;7.97;5.50;;;24.80;86.60;;;;;;6058257;23;20453;-88
2021/07/23 09:31:01;;;;;;;8.63;6.87;;;25.00;85.70;;;;;;6061281;23;20435;-86
2021/07/23 09:33:32;;;;;;;9.87;6.83;;;25.20;84.90;;;;;;6084967;23;20466;-85
2021/07/23 09:36:03;;;;;;;7.90;6.10;;;25.20;83.00;;;;;;6092937;23;20477;-86
2021/07/23 09:38:36;;;;;;;9.80;5.30;;;25.20;83.30;;;;;;6091460;23;20434;-86
2021/07/23 09:41:06;;;;;;;9.90;6.87;;;25.20;83.90;;;;;;6091149;23;20441;-86
2021/07/23 09:43:36;;;;;;;8.27;6.23;;;25.40;85.40;;;;;;6088905;23;20522;-86
2021/07/23 09:46:26;;;;;;;8.63;6.43;;;25.60;85.30;;;;;;6068044;23;20509;-86
2021/07/23 09:48:55;;;;;;;8.03;6.40;;;25.80;84.40;;;;;;6115658;23;20434;-86
2021/07/23 09:51:26;;;;;;;8.97;6.53;;;26.00;84.10;;;;;;6108632;23;20924;-86
2021/07/23 09:53:55;;;;;;;9.00;7.40;;;26.10;81.50;;;;;;6111668;23;20521;-86
2021/07/23 09:56:25;;;;;;;9.33;6.23;;;26.30;82.60;;;;;;6099914;23;20442;-86
2021/07/23 09:58:57;;;;;;;8.60;7.33;;;26.30;82.80;;;;;;6085138;23;20434;-86
2021/07/23 10:01:34;;;;;;;7.37;6.60;;;26.40;81.70;;;;;;6084044;23;20448;-86
2021/07/23 10:04:09;;;;;;;10.23;7.53;;;26.50;82.30;;;;;;6108550;23;20446;-86
2021/07/23 10:06:42;;;;;;;8.23;7.00;;;26.60;81.30;;;;;;6102590;23;20529;-86
2021/07/23 10:09:12;;;;;;;15.23;7.73;;;26.90;80.60;;;;;;6074371;23;20443;-86
2021/07/23 10:11:41;;;;;;;8.30;6.80;;;26.90;80.60;;;;;;6089560;23;20476;-86
2021/07/23 10:14:11;;;;;;;9.80;7.67;;;27.00;78.90;;;;;;6090727;23;20439;-86
2021/07/23 10:16:41;;;;;;;8.47;6.20;;;27.10;79.50;;;;;;6072636;23;20442;-86
2021/07/23 10:19:09;;;;;;;10.80;7.97;;;27.20;80.00;;;;;;6123114;23;20454;-86
2021/07/23 10:21:37;;;;;;;12.47;7.23;;;27.30;78.90;;;;;;6113839;23;20439;-85
2021/07/23 10:24:06;;;;;;;11.10;7.73;;;27.30;78.90;;;;;;6114670;23;20449;-86
2021/07/23 10:26:35;;;;;;;8.30;6.93;;;27.30;79.40;;;;;;6116283;23;20806;-85
2021/07/23 10:29:05;;;;;;;10.00;7.13;;;27.50;81.50;;;;;;6074863;23;20447;-87
2021/07/23 10:31:47;;;;;;;8.57;7.67;;;27.60;79.70;;;;;;6100420;23;20486;-86
2021/07/23 10:34:36;;;;;;;10.90;8.10;;;27.90;78.00;;;;;;6113496;23;20783;-86
2021/07/23 10:37:04;;;;;;;8.87;7.97;;;27.90;77.50;;;;;;6106629;23;20430;-86
2021/07/23 10:39:32;;;;;;;9.17;8.23;;;27.90;76.50;;;;;;6068721;23;20996;-86
2021/07/23 10:42:34;;;;;;;10.00;8.60;;;27.90;76.70;;;;;;6087116;23;21042;-86
2021/07/23 10:45:04;;;;;;;9.60;7.47;;;27.90;78.30;;;;;;6045623;23;20450;-87
2021/07/23 10:47:38;;;;;;;10.40;8.60;;;27.90;77.50;;;;;;6082591;23;20439;-86
2021/07/23 10:50:08;;;;;;;11.10;9.27;;;28.10;77.80;;;;;;6071027;23;20473;-87
2021/07/23 10:52:39;;;;;;;10.07;8.37;;;28.30;76.40;;;;;;6085935;23;20449;-86
2021/07/23 10:55:16;;;;;;;11.20;8.67;;;28.30;75.40;;;;;;6087622;23;20438;-86
2021/07/23 10:57:45;;;;;;;10.60;8.10;;;28.40;77.00;;;;;;6073711;23;20439;-86
2021/07/23 11:00:13;;;;;;;8.37;7.30;;;28.60;75.50;;;;;;6083385;23;20443;-86
2021/07/23 11:02:44;;;;;;;8.33;7.23;;;28.70;75.50;;;;;;6084449;23;20521;-87
2021/07/23 11:05:19;;;;;;;8.47;7.23;;;28.80;75.70;;;;;;6123451;23;20451;-87
2021/07/23 11:07:48;;;;;;;10.60;8.90;;;29.10;72.50;;;;;;6115265;23;20434;-86
2021/07/23 11:10:21;;;;;;;10.03;8.40;;;29.10;72.50;;;;;;6078584;23;20420;-87
2021/07/23 11:12:49;;;;;;;9.13;8.00;;;29.10;72.60;;;;;;6084759;23;20443;-87
2021/07/23 11:15:19;;;;;;;9.27;8.07;;;29.20;73.10;;;;;;6070523;23;20453;-86
2021/07/23 11:17:53;;;;;;;9.87;8.30;;;29.50;71.10;;;;;;6105069;23;20434;-87
2021/07/23 11:20:38;;;;;;;13.30;8.70;;;29.60;71.20;;;;;;6087838;23;20460;-87
2021/07/23 11:23:07;;;;;;;11.20;8.57;;;29.80;69.40;;;;;;6096750;23;20446;-87
2021/07/23 11:25:35;;;;;;;9.30;8.33;;;29.80;70.60;;;;;;6086552;23;21154;-88
2021/07/23 11:28:05;;;;;;;12.60;9.43;;;29.80;70.60;;;;;;6070467;23;20435;-87
2021/07/23 11:30:35;;;;;;;9.33;7.60;;;29.90;69.00;;;;;;6085189;23;20438;-87
2021/07/23 11:33:07;;;;;;;9.80;7.73;;;30.00;72.20;;;;;;6096379;23;20447;-87
2021/07/23 11:35:42;;;;;;;8.30;7.40;;;30.20;71.20;;;;;;6112342;23;20473;-87
2021/07/23 11:38:14;;;;;;;10.90;8.87;;;29.90;70.00;;;;;;6112011;23;20522;-89
2021/07/23 11:40:42;;;;;;;12.60;8.30;;;29.30;70.00;;;;;;6102717;23;20442;-87
2021/07/23 11:43:20;;;;;;;11.00;7.97;;;28.70;73.40;;;;;;6087966;23;20454;-88
2021/07/23 11:45:49;;;;;;;11.80;9.27;;;28.30;73.40;;;;;;6073812;23;20514;-88
2021/07/23 11:48:20;;;;;;;10.67;9.57;;;28.20;73.20;;;;;;6111643;23;20435;-88
2021/07/23 11:50:52;;;;;;;9.80;8.60;;;28.20;72.80;;;;;;6107446;23;20434;-87
2021/07/23 11:53:20;;;;;;;10.30;8.90;;;27.90;72.40;;;;;;6072335;23;20440;-88
2021/07/23 11:55:49;;;;;;;12.20;8.93;;;28.20;72.40;;;;;;6081427;23;20438;-89
2021/07/23 11:58:24;;;;;;;11.67;8.70;;;28.20;72.40;;;;;;6071821;23;20439;-87
2021/07/23 12:00:52;;;;;;;10.37;8.63;;;28.10;73.10;;;;;;6086588;23;20438;-86
2021/07/23 12:03:23;;;;;;;10.47;8.40;;;27.80;74.00;;;;;;6099827;23;20443;-88
2021/07/23 12:05:52;;;;;;;11.33;8.60;;;27.80;74.00;;;;;;6113812;23;20529;-86
2021/07/23 12:08:22;;;;;;;11.53;8.63;;;27.60;75.40;;;;;;6112771;23;20439;-87
2021/07/23 12:10:53;;;;;;;12.30;8.60;;;27.40;75.50;;;;;;6111995;23;20439;-88
2021/07/23 12:13:22;;;;;;;13.30;8.97;;;27.30;76.30;;;;;;6085896;23;20529;-87
2021/07/23 12:15:54;;;;;;;10.17;8.77;;;27.30;76.30;;;;;;6086279;23;20443;-89
2021/07/23 12:18:25;;;;;;;10.90;9.10;;;27.30;76.60;;;;;;6100072;23;20465;-88
2021/07/23 12:21:07;;;;;;;9.47;8.57;;;27.40;77.00;;;;;;6113108;23;20439;-88
2021/07/23 12:23:35;;;;;;;10.87;7.80;;;;;;;;;;6071019;23;20442;-88
2021/07/23 12:26:03;;;;;;;11.00;9.17;;;31.80;65.20;;;;;;6086881;23;20443;-89
2021/07/23 12:28:35;;;;;;;9.60;7.33;;;36.20;57.10;;;;;;6086325;23;20474;-89
2021/07/23 12:31:03;;;;;;;8.83;7.90;;;37.60;53.90;;;;;;6070921;23;20450;-88
2021/07/23 12:33:32;;;;;;;10.03;7.80;;;38.50;53.20;;;;;;6084994;23;20447;-88
2021/07/23 12:36:25;;;;;;;9.20;8.30;;;39.30;49.10;;;;;;6099368;23;20457;-89
2021/07/23 12:39:02;;;;;;;9.70;7.80;;;39.80;49.80;;;;;;6083746;23;20442;-89
2021/07/23 12:41:30;;;;;;;8.50;7.07;;;;;;;;;;6070648;23;20439;-88
2021/07/23 12:44:07;;;;;;;8.83;8.00;;;40.60;47.90;;;;;;6092077;23;20434;-88
2021/07/23 12:46:36;;;;;;;8.10;7.30;;;39.40;50.70;;;;;;6073264;23;20443;-89
2021/07/23 12:49:15;;;;;;;8.20;7.40;;;38.00;49.50;;;;;;6112761;23;21036;-88
2021/07/23 12:51:46;;;;;;;9.47;7.40;;;36.80;52.70;;;;;;6115787;23;20423;-89
2021/07/23 12:54:14;;;;;;;8.73;7.30;;;36.30;54.30;;;;;;6085399;23;20499;-87
2021/07/23 12:56:45;;;;;;;8.20;7.20;;;;;;;;;;6085618;23;20817;-87
2021/07/23 12:59:29;;;;;;;8.17;7.37;;;35.60;55.10;;;;;;6070761;23;20449;-87